sensor_id;sensor_type;location;lat;lon;timestamp;P1;durP1;ratioP1;P2;durP2;ratioP2
57225;SDS011;43082;43.568;22.256;2023-02-01T00:02:24;27.45;;;15.40;;
57225;SDS011;43082;43.568;22.256;2023-02-01T00:04:50;25.88;;;15.35;;
57225;SDS011;43082;43.568;22.256;2023-02-01T00:07:15;28.92;;;16.05;;
57225;SDS011;43082;43.568;22.256;2023-02-01T00:09:41;31.58;;;17.33;;
57225;SDS011;43082;43.568;22.256;2023-02-01T00:12:06;43.13;;;27.10;;
57225;SDS011;43082;43.568;22.256;2023-02-01T00:14:31;51.80;;;31.58;;
57225;SDS011;43082;43.568;22.256;2023-02-01T00:17:03;34.33;;;22.00;;
57225;SDS011;43082;43.568;22.256;2023-02-01T00:19:32;41.40;;;26.67;;
57225;SDS011;43082;43.568;22.256;2023-02-01T00:21:58;42.63;;;28.92;;
57225;SDS011;43082;43.568;22.256;2023-02-01T00:24:23;50.50;;;33.72;;
57225;SDS011;43082;43.568;22.256;2023-02-01T00:26:49;49.63;;;34.45;;
57225;SDS011;43082;43.568;22.256;2023-02-01T00:29:15;52.25;;;33.53;;
57225;SDS011;43082;43.568;22.256;2023-02-01T00:31:42;58.40;;;36.95;;
57225;SDS011;43082;43.568;22.256;2023-02-01T00:34:12;47.78;;;31.05;;
57225;SDS011;43082;43.568;22.256;2023-02-01T00:36:40;42.67;;;25.73;;
57225;SDS011;43082;43.568;22.256;2023-02-01T00:39:06;36.25;;;22.05;;
57225;SDS011;43082;43.568;22.256;2023-02-01T00:41:31;39.85;;;25.67;;
57225;SDS011;43082;43.568;22.256;2023-02-01T00:43:56;39.47;;;25.52;;
57225;SDS011;43082;43.568;22.256;2023-02-01T00:46:22;42.05;;;25.48;;
57225;SDS011;43082;43.568;22.256;2023-02-01T00:48:47;50.63;;;28.88;;
57225;SDS011;43082;43.568;22.256;2023-02-01T00:51:23;47.40;;;29.35;;
57225;SDS011;43082;43.568;22.256;2023-02-01T00:53:51;49.22;;;30.77;;
57225;SDS011;43082;43.568;22.256;2023-02-01T00:56:16;46.70;;;29.48;;
57225;SDS011;43082;43.568;22.256;2023-02-01T00:58:42;48.70;;;29.38;;
57225;SDS011;43082;43.568;22.256;2023-02-01T01:01:08;41.30;;;27.17;;
57225;SDS011;43082;43.568;22.256;2023-02-01T01:03:53;31.85;;;19.05;;
57225;SDS011;43082;43.568;22.256;2023-02-01T01:06:21;37.55;;;23.13;;
57225;SDS011;43082;43.568;22.256;2023-02-01T01:08:50;37.33;;;22.40;;
57225;SDS011;43082;43.568;22.256;2023-02-01T01:11:17;40.33;;;24.73;;
57225;SDS011;43082;43.568;22.256;2023-02-01T01:13:48;43.42;;;27.05;;
57225;SDS011;43082;43.568;22.256;2023-02-01T01:16:16;33.42;;;21.25;;
57225;SDS011;43082;43.568;22.256;2023-02-01T01:18:42;31.52;;;20.55;;
57225;SDS011;43082;43.568;22.256;2023-02-01T01:21:08;29.92;;;19.17;;
57225;SDS011;43082;43.568;22.256;2023-02-01T01:23:35;31.20;;;19.27;;
57225;SDS011;43082;43.568;22.256;2023-02-01T01:26:04;29.33;;;17.55;;
57225;SDS011;43082;43.568;22.256;2023-02-01T01:28:31;23.08;;;14.32;;
57225;SDS011;43082;43.568;22.256;2023-02-01T01:30:56;21.60;;;14.27;;
57225;SDS011;43082;43.568;22.256;2023-02-01T01:33:21;25.85;;;16.50;;
57225;SDS011;43082;43.568;22.256;2023-02-01T01:35:47;25.17;;;15.45;;
57225;SDS011;43082;43.568;22.256;2023-02-01T01:38:12;28.20;;;17.52;;
57225;SDS011;43082;43.568;22.256;2023-02-01T01:40:37;27.88;;;17.95;;
57225;SDS011;43082;43.568;22.256;2023-02-01T01:43:05;40.67;;;25.10;;
57225;SDS011;43082;43.568;22.256;2023-02-01T01:45:36;50.47;;;32.05;;
57225;SDS011;43082;43.568;22.256;2023-02-01T01:48:13;56.20;;;35.15;;
57225;SDS011;43082;43.568;22.256;2023-02-01T01:50:49;52.50;;;32.97;;
57225;SDS011;43082;43.568;22.256;2023-02-01T01:53:19;52.33;;;34.38;;
57225;SDS011;43082;43.568;22.256;2023-02-01T01:55:48;40.08;;;26.63;;
57225;SDS011;43082;43.568;22.256;2023-02-01T01:58:16;39.05;;;25.70;;
57225;SDS011;43082;43.568;22.256;2023-02-01T02:00:44;39.90;;;26.00;;
57225;SDS011;43082;43.568;22.256;2023-02-01T02:05:44;46.90;;;32.00;;
57225;SDS011;43082;43.568;22.256;2023-02-01T02:08:11;41.85;;;27.25;;
57225;SDS011;43082;43.568;22.256;2023-02-01T02:10:36;45.40;;;29.88;;
57225;SDS011;43082;43.568;22.256;2023-02-01T02:13:21;55.28;;;37.17;;
57225;SDS011;43082;43.568;22.256;2023-02-01T02:15:54;80.35;;;50.78;;
57225;SDS011;43082;43.568;22.256;2023-02-01T02:18:57;73.00;;;46.53;;
57225;SDS011;43082;43.568;22.256;2023-02-01T02:41:33;23.70;;;13.32;;
57225;SDS011;43082;43.568;22.256;2023-02-01T02:47:44;25.77;;;15.60;;
57225;SDS011;43082;43.568;22.256;2023-02-01T02:53:02;33.63;;;21.33;;
57225;SDS011;43082;43.568;22.256;2023-02-01T02:55:50;39.20;;;23.40;;
57225;SDS011;43082;43.568;22.256;2023-02-01T02:58:16;43.47;;;26.42;;
57225;SDS011;43082;43.568;22.256;2023-02-01T03:01:00;53.92;;;29.33;;
57225;SDS011;43082;43.568;22.256;2023-02-01T03:03:45;45.05;;;24.70;;
57225;SDS011;43082;43.568;22.256;2023-02-01T03:06:33;39.90;;;22.55;;
57225;SDS011;43082;43.568;22.256;2023-02-01T03:08:59;36.55;;;21.67;;
57225;SDS011;43082;43.568;22.256;2023-02-01T03:11:27;36.13;;;23.95;;
57225;SDS011;43082;43.568;22.256;2023-02-01T03:14:12;39.10;;;24.13;;
57225;SDS011;43082;43.568;22.256;2023-02-01T03:21:46;36.90;;;21.93;;
57225;SDS011;43082;43.568;22.256;2023-02-01T03:24:16;48.72;;;28.98;;
57225;SDS011;43082;43.568;22.256;2023-02-01T03:26:48;35.60;;;22.23;;
57225;SDS011;43082;43.568;22.256;2023-02-01T03:32:34;26.98;;;16.83;;
57225;SDS011;43082;43.568;22.256;2023-02-01T03:35:23;22.13;;;13.07;;
57225;SDS011;43082;43.568;22.256;2023-02-01T03:37:56;22.80;;;14.02;;
57225;SDS011;43082;43.568;22.256;2023-02-01T03:40:27;29.70;;;19.20;;
57225;SDS011;43082;43.568;22.256;2023-02-01T03:42:56;31.33;;;19.80;;
57225;SDS011;43082;43.568;22.256;2023-02-01T03:45:26;30.40;;;20.35;;
57225;SDS011;43082;43.568;22.256;2023-02-01T03:47:56;29.27;;;19.38;;
57225;SDS011;43082;43.568;22.256;2023-02-01T03:50:25;28.02;;;17.83;;
57225;SDS011;43082;43.568;22.256;2023-02-01T03:52:52;27.00;;;17.92;;
57225;SDS011;43082;43.568;22.256;2023-02-01T03:55:21;28.63;;;19.08;;
57225;SDS011;43082;43.568;22.256;2023-02-01T03:57:59;33.95;;;23.15;;
57225;SDS011;43082;43.568;22.256;2023-02-01T04:00:27;34.33;;;22.70;;
57225;SDS011;43082;43.568;22.256;2023-02-01T04:02:53;27.77;;;16.75;;
57225;SDS011;43082;43.568;22.256;2023-02-01T04:05:19;16.17;;;9.73;;
57225;SDS011;43082;43.568;22.256;2023-02-01T04:07:45;13.00;;;6.95;;
57225;SDS011;43082;43.568;22.256;2023-02-01T04:10:10;11.52;;;5.97;;
57225;SDS011;43082;43.568;22.256;2023-02-01T04:12:36;11.90;;;6.20;;
57225;SDS011;43082;43.568;22.256;2023-02-01T04:15:02;16.23;;;8.00;;
57225;SDS011;43082;43.568;22.256;2023-02-01T04:17:28;15.13;;;7.75;;
57225;SDS011;43082;43.568;22.256;2023-02-01T04:19:53;12.38;;;6.70;;
57225;SDS011;43082;43.568;22.256;2023-02-01T04:22:19;14.02;;;7.55;;
57225;SDS011;43082;43.568;22.256;2023-02-01T04:24:44;14.98;;;7.53;;
57225;SDS011;43082;43.568;22.256;2023-02-01T04:27:10;13.65;;;8.32;;
57225;SDS011;43082;43.568;22.256;2023-02-01T04:29:35;15.52;;;9.63;;
57225;SDS011;43082;43.568;22.256;2023-02-01T04:32:00;20.15;;;11.85;;
57225;SDS011;43082;43.568;22.256;2023-02-01T04:34:26;20.30;;;11.63;;
57225;SDS011;43082;43.568;22.256;2023-02-01T04:36:51;11.45;;;6.40;;
57225;SDS011;43082;43.568;22.256;2023-02-01T04:39:17;11.63;;;5.88;;
57225;SDS011;43082;43.568;22.256;2023-02-01T04:41:42;14.90;;;8.75;;
57225;SDS011;43082;43.568;22.256;2023-02-01T04:44:15;21.98;;;12.75;;
57225;SDS011;43082;43.568;22.256;2023-02-01T04:46:41;17.17;;;8.85;;
57225;SDS011;43082;43.568;22.256;2023-02-01T04:49:08;19.63;;;12.48;;
57225;SDS011;43082;43.568;22.256;2023-02-01T04:51:34;18.40;;;9.75;;
57225;SDS011;43082;43.568;22.256;2023-02-01T04:53:59;18.35;;;9.30;;
57225;SDS011;43082;43.568;22.256;2023-02-01T04:56:25;19.50;;;10.48;;
57225;SDS011;43082;43.568;22.256;2023-02-01T04:58:50;14.93;;;7.00;;
57225;SDS011;43082;43.568;22.256;2023-02-01T05:01:16;10.43;;;3.88;;
57225;SDS011;43082;43.568;22.256;2023-02-01T05:03:41;10.38;;;5.13;;
57225;SDS011;43082;43.568;22.256;2023-02-01T05:06:06;11.48;;;4.90;;
57225;SDS011;43082;43.568;22.256;2023-02-01T05:08:32;10.52;;;4.82;;
57225;SDS011;43082;43.568;22.256;2023-02-01T05:10:57;11.23;;;6.13;;
57225;SDS011;43082;43.568;22.256;2023-02-01T05:13:24;20.30;;;9.23;;
57225;SDS011;43082;43.568;22.256;2023-02-01T05:16:08;15.65;;;6.40;;
57225;SDS011;43082;43.568;22.256;2023-02-01T05:18:33;24.58;;;11.95;;
57225;SDS011;43082;43.568;22.256;2023-02-01T05:20:59;12.68;;;6.78;;
57225;SDS011;43082;43.568;22.256;2023-02-01T05:23:24;10.52;;;4.30;;
57225;SDS011;43082;43.568;22.256;2023-02-01T05:25:50;11.13;;;6.28;;
57225;SDS011;43082;43.568;22.256;2023-02-01T05:28:15;15.85;;;9.80;;
57225;SDS011;43082;43.568;22.256;2023-02-01T05:30:40;37.33;;;23.40;;
57225;SDS011;43082;43.568;22.256;2023-02-01T05:33:06;44.78;;;29.58;;
57225;SDS011;43082;43.568;22.256;2023-02-01T05:35:32;24.70;;;16.33;;
57225;SDS011;43082;43.568;22.256;2023-02-01T05:37:57;21.42;;;14.68;;
57225;SDS011;43082;43.568;22.256;2023-02-01T05:40:22;21.88;;;13.70;;
57225;SDS011;43082;43.568;22.256;2023-02-01T05:42:48;18.70;;;12.07;;
57225;SDS011;43082;43.568;22.256;2023-02-01T05:45:13;17.95;;;12.02;;
57225;SDS011;43082;43.568;22.256;2023-02-01T05:47:39;16.02;;;9.25;;
57225;SDS011;43082;43.568;22.256;2023-02-01T05:50:04;24.67;;;14.13;;
57225;SDS011;43082;43.568;22.256;2023-02-01T05:52:31;45.17;;;25.10;;
57225;SDS011;43082;43.568;22.256;2023-02-01T05:54:56;43.15;;;24.70;;
57225;SDS011;43082;43.568;22.256;2023-02-01T05:57:21;45.88;;;26.13;;
57225;SDS011;43082;43.568;22.256;2023-02-01T05:59:47;38.60;;;25.08;;
57225;SDS011;43082;43.568;22.256;2023-02-01T06:02:13;44.10;;;27.67;;
57225;SDS011;43082;43.568;22.256;2023-02-01T06:04:39;42.22;;;28.27;;
57225;SDS011;43082;43.568;22.256;2023-02-01T06:07:05;40.75;;;25.83;;
57225;SDS011;43082;43.568;22.256;2023-02-01T06:09:32;36.08;;;25.73;;
57225;SDS011;43082;43.568;22.256;2023-02-01T06:11:58;42.20;;;26.80;;
57225;SDS011;43082;43.568;22.256;2023-02-01T06:14:24;43.20;;;30.63;;
57225;SDS011;43082;43.568;22.256;2023-02-01T06:16:49;45.08;;;31.63;;
57225;SDS011;43082;43.568;22.256;2023-02-01T06:19:15;44.05;;;31.60;;
57225;SDS011;43082;43.568;22.256;2023-02-01T06:21:40;90.00;;;55.75;;
57225;SDS011;43082;43.568;22.256;2023-02-01T06:24:06;42.97;;;29.80;;
57225;SDS011;43082;43.568;22.256;2023-02-01T06:26:31;38.72;;;24.52;;
57225;SDS011;43082;43.568;22.256;2023-02-01T06:28:58;42.25;;;25.20;;
57225;SDS011;43082;43.568;22.256;2023-02-01T06:31:23;23.35;;;14.55;;
57225;SDS011;43082;43.568;22.256;2023-02-01T06:33:50;35.00;;;23.83;;
57225;SDS011;43082;43.568;22.256;2023-02-01T06:36:16;29.83;;;20.00;;
57225;SDS011;43082;43.568;22.256;2023-02-01T06:38:43;31.15;;;20.80;;
57225;SDS011;43082;43.568;22.256;2023-02-01T06:41:08;30.55;;;19.80;;
57225;SDS011;43082;43.568;22.256;2023-02-01T06:43:34;29.67;;;19.20;;
57225;SDS011;43082;43.568;22.256;2023-02-01T06:46:07;33.10;;;20.85;;
57225;SDS011;43082;43.568;22.256;2023-02-01T06:48:33;35.35;;;23.33;;
57225;SDS011;43082;43.568;22.256;2023-02-01T06:50:59;36.03;;;24.35;;
57225;SDS011;43082;43.568;22.256;2023-02-01T06:53:25;25.60;;;15.93;;
57225;SDS011;43082;43.568;22.256;2023-02-01T06:55:51;23.95;;;14.75;;
57225;SDS011;43082;43.568;22.256;2023-02-01T06:58:17;36.03;;;22.23;;
57225;SDS011;43082;43.568;22.256;2023-02-01T07:00:42;25.98;;;17.58;;
57225;SDS011;43082;43.568;22.256;2023-02-01T07:03:08;27.35;;;18.30;;
57225;SDS011;43082;43.568;22.256;2023-02-01T07:05:33;23.00;;;13.48;;
57225;SDS011;43082;43.568;22.256;2023-02-01T07:07:59;24.83;;;15.02;;
57225;SDS011;43082;43.568;22.256;2023-02-01T07:10:24;29.05;;;20.05;;
57225;SDS011;43082;43.568;22.256;2023-02-01T07:12:49;26.33;;;16.55;;
57225;SDS011;43082;43.568;22.256;2023-02-01T07:15:15;26.48;;;17.15;;
57225;SDS011;43082;43.568;22.256;2023-02-01T07:17:40;18.45;;;12.50;;
57225;SDS011;43082;43.568;22.256;2023-02-01T07:20:06;17.13;;;10.60;;
57225;SDS011;43082;43.568;22.256;2023-02-01T07:22:32;19.77;;;11.35;;
57225;SDS011;43082;43.568;22.256;2023-02-01T07:24:57;16.75;;;10.93;;
57225;SDS011;43082;43.568;22.256;2023-02-01T07:27:23;21.63;;;13.50;;
57225;SDS011;43082;43.568;22.256;2023-02-01T07:29:50;25.13;;;17.90;;
57225;SDS011;43082;43.568;22.256;2023-02-01T07:32:16;14.85;;;8.05;;
57225;SDS011;43082;43.568;22.256;2023-02-01T07:34:43;16.92;;;10.63;;
57225;SDS011;43082;43.568;22.256;2023-02-01T07:37:09;20.25;;;11.20;;
57225;SDS011;43082;43.568;22.256;2023-02-01T07:39:34;15.43;;;9.13;;
57225;SDS011;43082;43.568;22.256;2023-02-01T07:41:59;15.93;;;9.80;;
57225;SDS011;43082;43.568;22.256;2023-02-01T07:44:25;19.20;;;12.30;;
57225;SDS011;43082;43.568;22.256;2023-02-01T07:46:50;26.85;;;18.13;;
57225;SDS011;43082;43.568;22.256;2023-02-01T07:49:16;29.05;;;19.10;;
57225;SDS011;43082;43.568;22.256;2023-02-01T07:51:42;22.17;;;13.13;;
57225;SDS011;43082;43.568;22.256;2023-02-01T07:54:08;14.30;;;7.95;;
57225;SDS011;43082;43.568;22.256;2023-02-01T07:56:33;13.35;;;7.57;;
57225;SDS011;43082;43.568;22.256;2023-02-01T07:58:59;13.68;;;7.63;;
57225;SDS011;43082;43.568;22.256;2023-02-01T08:01:26;10.02;;;4.85;;
57225;SDS011;43082;43.568;22.256;2023-02-01T08:06:18;16.00;;;9.90;;
57225;SDS011;43082;43.568;22.256;2023-02-01T08:08:47;19.67;;;12.77;;
57225;SDS011;43082;43.568;22.256;2023-02-01T08:11:13;19.50;;;12.40;;
57225;SDS011;43082;43.568;22.256;2023-02-01T08:13:39;15.77;;;9.05;;
57225;SDS011;43082;43.568;22.256;2023-02-01T08:16:06;12.70;;;6.70;;
57225;SDS011;43082;43.568;22.256;2023-02-01T08:18:32;23.20;;;15.02;;
57225;SDS011;43082;43.568;22.256;2023-02-01T08:21:06;17.25;;;8.88;;
57225;SDS011;43082;43.568;22.256;2023-02-01T08:23:33;19.15;;;11.13;;
57225;SDS011;43082;43.568;22.256;2023-02-01T08:26:21;17.48;;;7.88;;
57225;SDS011;43082;43.568;22.256;2023-02-01T08:28:55;20.42;;;9.77;;
57225;SDS011;43082;43.568;22.256;2023-02-01T08:31:22;21.83;;;14.68;;
57225;SDS011;43082;43.568;22.256;2023-02-01T08:33:52;23.48;;;13.65;;
57225;SDS011;43082;43.568;22.256;2023-02-01T08:36:19;23.77;;;14.00;;
57225;SDS011;43082;43.568;22.256;2023-02-01T08:38:45;22.02;;;14.85;;
57225;SDS011;43082;43.568;22.256;2023-02-01T08:41:12;21.60;;;13.65;;
57225;SDS011;43082;43.568;22.256;2023-02-01T08:43:39;20.42;;;12.38;;
57225;SDS011;43082;43.568;22.256;2023-02-01T08:46:05;20.23;;;11.75;;
57225;SDS011;43082;43.568;22.256;2023-02-01T08:48:32;22.23;;;13.75;;
57225;SDS011;43082;43.568;22.256;2023-02-01T08:51:00;24.60;;;14.07;;
57225;SDS011;43082;43.568;22.256;2023-02-01T08:53:30;31.75;;;22.25;;
57225;SDS011;43082;43.568;22.256;2023-02-01T08:55:56;17.88;;;10.45;;
57225;SDS011;43082;43.568;22.256;2023-02-01T08:58:21;18.70;;;9.68;;
57225;SDS011;43082;43.568;22.256;2023-02-01T09:00:47;17.85;;;8.43;;
57225;SDS011;43082;43.568;22.256;2023-02-01T09:03:13;17.98;;;9.80;;
57225;SDS011;43082;43.568;22.256;2023-02-01T09:05:39;21.10;;;10.80;;
57225;SDS011;43082;43.568;22.256;2023-02-01T09:08:05;16.23;;;8.57;;
57225;SDS011;43082;43.568;22.256;2023-02-01T09:10:30;18.17;;;10.27;;
57225;SDS011;43082;43.568;22.256;2023-02-01T09:12:56;19.67;;;11.73;;
57225;SDS011;43082;43.568;22.256;2023-02-01T09:15:21;13.52;;;7.15;;
57225;SDS011;43082;43.568;22.256;2023-02-01T09:17:46;19.70;;;11.90;;
57225;SDS011;43082;43.568;22.256;2023-02-01T09:20:12;19.15;;;11.23;;
57225;SDS011;43082;43.568;22.256;2023-02-01T09:22:38;16.00;;;8.93;;
57225;SDS011;43082;43.568;22.256;2023-02-01T09:25:03;13.45;;;8.02;;
57225;SDS011;43082;43.568;22.256;2023-02-01T09:27:29;13.45;;;7.50;;
57225;SDS011;43082;43.568;22.256;2023-02-01T09:29:55;19.80;;;9.45;;
57225;SDS011;43082;43.568;22.256;2023-02-01T09:32:20;16.65;;;9.95;;
57225;SDS011;43082;43.568;22.256;2023-02-01T09:34:47;18.15;;;10.45;;
57225;SDS011;43082;43.568;22.256;2023-02-01T09:37:13;13.70;;;6.47;;
57225;SDS011;43082;43.568;22.256;2023-02-01T09:39:38;12.85;;;7.15;;
57225;SDS011;43082;43.568;22.256;2023-02-01T09:45:06;15.57;;;7.05;;
57225;SDS011;43082;43.568;22.256;2023-02-01T09:47:28;31.33;;;18.50;;
57225;SDS011;43082;43.568;22.256;2023-02-01T09:52:36;26.58;;;18.27;;
57225;SDS011;43082;43.568;22.256;2023-02-01T09:55:32;46.10;;;33.67;;
57225;SDS011;43082;43.568;22.256;2023-02-01T09:58:03;28.85;;;18.65;;
57225;SDS011;43082;43.568;22.256;2023-02-01T10:00:35;24.52;;;16.15;;
57225;SDS011;43082;43.568;22.256;2023-02-01T10:03:02;11.05;;;6.97;;
57225;SDS011;43082;43.568;22.256;2023-02-01T10:05:34;9.88;;;5.00;;
57225;SDS011;43082;43.568;22.256;2023-02-01T10:11:04;11.60;;;6.28;;
57225;SDS011;43082;43.568;22.256;2023-02-01T10:14:13;13.32;;;7.63;;
57225;SDS011;43082;43.568;22.256;2023-02-01T10:19:41;14.32;;;6.53;;
57225;SDS011;43082;43.568;22.256;2023-02-01T10:22:33;7.63;;;3.40;;
57225;SDS011;43082;43.568;22.256;2023-02-01T10:25:12;8.75;;;3.85;;
57225;SDS011;43082;43.568;22.256;2023-02-01T10:27:38;16.40;;;9.13;;
57225;SDS011;43082;43.568;22.256;2023-02-01T10:30:21;21.25;;;12.70;;
57225;SDS011;43082;43.568;22.256;2023-02-01T10:32:48;13.05;;;7.10;;
57225;SDS011;43082;43.568;22.256;2023-02-01T10:35:21;7.72;;;4.03;;
57225;SDS011;43082;43.568;22.256;2023-02-01T10:37:49;14.77;;;8.65;;
57225;SDS011;43082;43.568;22.256;2023-02-01T10:40:24;11.95;;;6.78;;
57225;SDS011;43082;43.568;22.256;2023-02-01T10:42:51;10.35;;;5.55;;
57225;SDS011;43082;43.568;22.256;2023-02-01T10:45:21;10.75;;;5.50;;
57225;SDS011;43082;43.568;22.256;2023-02-01T10:47:49;24.30;;;16.73;;
57225;SDS011;43082;43.568;22.256;2023-02-01T10:53:17;16.92;;;9.07;;
57225;SDS011;43082;43.568;22.256;2023-02-01T10:55:48;12.20;;;6.50;;
57225;SDS011;43082;43.568;22.256;2023-02-01T10:58:28;13.25;;;6.97;;
57225;SDS011;43082;43.568;22.256;2023-02-01T11:01:05;12.75;;;7.03;;
57225;SDS011;43082;43.568;22.256;2023-02-01T11:03:33;12.30;;;7.85;;
57225;SDS011;43082;43.568;22.256;2023-02-01T11:06:51;12.20;;;7.00;;
57225;SDS011;43082;43.568;22.256;2023-02-01T11:08:54;13.57;;;8.88;;
57225;SDS011;43082;43.568;22.256;2023-02-01T11:11:22;14.35;;;8.65;;
57225;SDS011;43082;43.568;22.256;2023-02-01T11:13:55;21.67;;;13.75;;
57225;SDS011;43082;43.568;22.256;2023-02-01T11:16:28;16.10;;;10.32;;
57225;SDS011;43082;43.568;22.256;2023-02-01T11:19:03;12.50;;;6.50;;
57225;SDS011;43082;43.568;22.256;2023-02-01T11:21:29;12.30;;;7.18;;
57225;SDS011;43082;43.568;22.256;2023-02-01T11:23:55;13.48;;;6.15;;
57225;SDS011;43082;43.568;22.256;2023-02-01T11:26:27;16.60;;;9.13;;
57225;SDS011;43082;43.568;22.256;2023-02-01T11:28:58;11.38;;;5.68;;
57225;SDS011;43082;43.568;22.256;2023-02-01T11:31:26;13.82;;;8.35;;
57225;SDS011;43082;43.568;22.256;2023-02-01T11:33:53;13.48;;;5.50;;
57225;SDS011;43082;43.568;22.256;2023-02-01T11:36:24;8.45;;;3.85;;
57225;SDS011;43082;43.568;22.256;2023-02-01T11:38:53;11.50;;;6.63;;
57225;SDS011;43082;43.568;22.256;2023-02-01T11:41:32;17.08;;;9.90;;
57225;SDS011;43082;43.568;22.256;2023-02-01T11:43:59;23.95;;;13.02;;
57225;SDS011;43082;43.568;22.256;2023-02-01T11:46:32;22.95;;;12.13;;
57225;SDS011;43082;43.568;22.256;2023-02-01T11:57:36;16.08;;;10.40;;
57225;SDS011;43082;43.568;22.256;2023-02-01T12:00:12;10.20;;;5.45;;
57225;SDS011;43082;43.568;22.256;2023-02-01T12:08:34;16.83;;;8.60;;
57225;SDS011;43082;43.568;22.256;2023-02-01T12:11:48;12.88;;;7.97;;
57225;SDS011;43082;43.568;22.256;2023-02-01T12:33:51;13.35;;;7.32;;
57225;SDS011;43082;43.568;22.256;2023-02-01T12:42:16;9.07;;;3.47;;
57225;SDS011;43082;43.568;22.256;2023-02-01T12:45:32;6.15;;;2.67;;
57225;SDS011;43082;43.568;22.256;2023-02-01T12:48:00;12.65;;;6.43;;
57225;SDS011;43082;43.568;22.256;2023-02-01T12:50:32;14.52;;;8.98;;
57225;SDS011;43082;43.568;22.256;2023-02-01T12:55:45;11.27;;;4.90;;
57225;SDS011;43082;43.568;22.256;2023-02-01T12:58:23;18.98;;;8.43;;
57225;SDS011;43082;43.568;22.256;2023-02-01T13:03:43;14.23;;;7.45;;
57225;SDS011;43082;43.568;22.256;2023-02-01T13:06:19;20.35;;;10.82;;
57225;SDS011;43082;43.568;22.256;2023-02-01T13:08:52;13.38;;;8.20;;
57225;SDS011;43082;43.568;22.256;2023-02-01T13:13:59;18.48;;;10.40;;
57225;SDS011;43082;43.568;22.256;2023-02-01T13:16:41;14.48;;;8.77;;
57225;SDS011;43082;43.568;22.256;2023-02-01T13:22:17;19.67;;;10.95;;
57225;SDS011;43082;43.568;22.256;2023-02-01T13:24:51;14.07;;;6.90;;
57225;SDS011;43082;43.568;22.256;2023-02-01T13:27:20;12.00;;;7.10;;
57225;SDS011;43082;43.568;22.256;2023-02-01T13:29:48;18.98;;;10.43;;
57225;SDS011;43082;43.568;22.256;2023-02-01T13:32:29;19.30;;;10.98;;
57225;SDS011;43082;43.568;22.256;2023-02-01T13:35:13;16.23;;;7.45;;
57225;SDS011;43082;43.568;22.256;2023-02-01T13:43:21;19.30;;;11.63;;
57225;SDS011;43082;43.568;22.256;2023-02-01T13:45:50;13.02;;;7.00;;
57225;SDS011;43082;43.568;22.256;2023-02-01T13:48:18;14.77;;;7.22;;
57225;SDS011;43082;43.568;22.256;2023-02-01T13:50:49;15.13;;;9.38;;
57225;SDS011;43082;43.568;22.256;2023-02-01T13:53:25;13.05;;;6.47;;
57225;SDS011;43082;43.568;22.256;2023-02-01T13:55:57;17.73;;;9.70;;
57225;SDS011;43082;43.568;22.256;2023-02-01T13:58:38;15.55;;;9.93;;
57225;SDS011;43082;43.568;22.256;2023-02-01T14:03:53;34.72;;;24.73;;
57225;SDS011;43082;43.568;22.256;2023-02-01T14:16:42;30.48;;;18.08;;
57225;SDS011;43082;43.568;22.256;2023-02-01T14:19:18;55.72;;;34.60;;
57225;SDS011;43082;43.568;22.256;2023-02-01T14:21:55;61.58;;;37.10;;
57225;SDS011;43082;43.568;22.256;2023-02-01T14:26:50;50.05;;;32.10;;
57225;SDS011;43082;43.568;22.256;2023-02-01T14:32:03;91.80;;;60.95;;
57225;SDS011;43082;43.568;22.256;2023-02-01T14:42:29;29.05;;;16.98;;
57225;SDS011;43082;43.568;22.256;2023-02-01T14:47:42;26.00;;;15.35;;
57225;SDS011;43082;43.568;22.256;2023-02-01T14:55:39;32.38;;;21.17;;
57225;SDS011;43082;43.568;22.256;2023-02-01T15:06:29;31.73;;;19.83;;
57225;SDS011;43082;43.568;22.256;2023-02-01T15:09:33;51.72;;;38.03;;
57225;SDS011;43082;43.568;22.256;2023-02-01T15:14:43;26.23;;;17.58;;
57225;SDS011;43082;43.568;22.256;2023-02-01T15:19:58;25.33;;;16.10;;
57225;SDS011;43082;43.568;22.256;2023-02-01T15:22:26;23.77;;;14.75;;
57225;SDS011;43082;43.568;22.256;2023-02-01T15:24:53;31.20;;;19.27;;
57225;SDS011;43082;43.568;22.256;2023-02-01T15:27:20;34.00;;;21.23;;
57225;SDS011;43082;43.568;22.256;2023-02-01T15:29:45;32.72;;;21.25;;
57225;SDS011;43082;43.568;22.256;2023-02-01T15:32:29;41.35;;;26.40;;
57225;SDS011;43082;43.568;22.256;2023-02-01T15:34:59;39.53;;;26.10;;
57225;SDS011;43082;43.568;22.256;2023-02-01T15:37:25;42.00;;;26.88;;
57225;SDS011;43082;43.568;22.256;2023-02-01T15:42:40;58.90;;;35.92;;
57225;SDS011;43082;43.568;22.256;2023-02-01T15:45:17;66.13;;;45.03;;
57225;SDS011;43082;43.568;22.256;2023-02-01T15:47:46;51.88;;;38.53;;
57225;SDS011;43082;43.568;22.256;2023-02-01T15:50:14;60.20;;;43.13;;
57225;SDS011;43082;43.568;22.256;2023-02-01T15:52:41;50.63;;;36.60;;
57225;SDS011;43082;43.568;22.256;2023-02-01T15:55:31;46.28;;;34.42;;
57225;SDS011;43082;43.568;22.256;2023-02-01T15:57:58;43.38;;;31.02;;
57225;SDS011;43082;43.568;22.256;2023-02-01T16:00:25;32.65;;;23.67;;
57225;SDS011;43082;43.568;22.256;2023-02-01T16:02:57;53.45;;;35.70;;
57225;SDS011;43082;43.568;22.256;2023-02-01T16:05:53;41.17;;;31.50;;
57225;SDS011;43082;43.568;22.256;2023-02-01T16:08:21;29.95;;;23.45;;
57225;SDS011;43082;43.568;22.256;2023-02-01T16:10:49;53.30;;;40.65;;
57225;SDS011;43082;43.568;22.256;2023-02-01T16:13:16;59.00;;;43.85;;
57225;SDS011;43082;43.568;22.256;2023-02-01T16:15:42;74.85;;;49.78;;
57225;SDS011;43082;43.568;22.256;2023-02-01T16:18:07;83.57;;;61.35;;
57225;SDS011;43082;43.568;22.256;2023-02-01T16:20:36;29.33;;;22.92;;
57225;SDS011;43082;43.568;22.256;2023-02-01T16:23:04;50.00;;;41.35;;
57225;SDS011;43082;43.568;22.256;2023-02-01T16:25:30;50.70;;;38.72;;
57225;SDS011;43082;43.568;22.256;2023-02-01T16:27:55;14.48;;;10.82;;
57225;SDS011;43082;43.568;22.256;2023-02-01T16:30:21;27.33;;;21.63;;
57225;SDS011;43082;43.568;22.256;2023-02-01T16:32:55;30.10;;;22.73;;
57225;SDS011;43082;43.568;22.256;2023-02-01T16:35:23;28.77;;;20.63;;
57225;SDS011;43082;43.568;22.256;2023-02-01T16:37:51;50.42;;;35.80;;
57225;SDS011;43082;43.568;22.256;2023-02-01T16:40:17;115.55;;;81.50;;
57225;SDS011;43082;43.568;22.256;2023-02-01T16:42:45;108.05;;;81.78;;
57225;SDS011;43082;43.568;22.256;2023-02-01T16:45:11;73.68;;;54.15;;
57225;SDS011;43082;43.568;22.256;2023-02-01T16:47:37;66.60;;;50.85;;
57225;SDS011;43082;43.568;22.256;2023-02-01T16:50:03;64.53;;;49.88;;
57225;SDS011;43082;43.568;22.256;2023-02-01T16:52:29;59.50;;;43.92;;
57225;SDS011;43082;43.568;22.256;2023-02-01T16:54:54;78.47;;;55.38;;
57225;SDS011;43082;43.568;22.256;2023-02-01T16:57:20;99.28;;;70.00;;
57225;SDS011;43082;43.568;22.256;2023-02-01T16:59:49;102.20;;;73.25;;
57225;SDS011;43082;43.568;22.256;2023-02-01T17:02:15;89.68;;;68.53;;
57225;SDS011;43082;43.568;22.256;2023-02-01T17:04:46;100.20;;;74.05;;
57225;SDS011;43082;43.568;22.256;2023-02-01T17:07:16;118.18;;;89.47;;
57225;SDS011;43082;43.568;22.256;2023-02-01T17:09:43;146.18;;;108.80;;